sensor_id;sensor_type;location;lat;lon;timestamp;pressure;altitude;pressure_sealevel;temperature
49593;BMP280;35499;51.482;4.264;2023-04-01T00:00:10;99260.88;;;10.26
49593;BMP280;35499;51.482;4.264;2023-04-01T00:02:36;99278.94;;;10.23
49593;BMP280;35499;51.482;4.264;2023-04-01T00:05:02;99272.13;;;10.22
49593;BMP280;35499;51.482;4.264;2023-04-01T00:07:27;99278.09;;;10.22
49593;BMP280;35499;51.482;4.264;2023-04-01T00:09:53;99283.22;;;10.22
49593;BMP280;35499;51.482;4.264;2023-04-01T00:12:18;99288.34;;;10.22
49593;BMP280;35499;51.482;4.264;2023-04-01T00:14:43;99287.59;;;10.20
49593;BMP280;35499;51.482;4.264;2023-04-01T00:17:09;99292.75;;;10.19
49593;BMP280;35499;51.482;4.264;2023-04-01T00:19:34;99295.38;;;10.18
49593;BMP280;35499;51.482;4.264;2023-04-01T00:21:59;99298.09;;;10.13
49593;BMP280;35499;51.482;4.264;2023-04-01T00:24:24;99300.72;;;10.12
49593;BMP280;35499;51.482;4.264;2023-04-01T00:26:50;99297.41;;;10.10
49593;BMP280;35499;51.482;4.264;2023-04-01T00:29:15;99300.84;;;10.09
49593;BMP280;35499;51.482;4.264;2023-04-01T00:31:40;99297.47;;;10.07
49593;BMP280;35499;51.482;4.264;2023-04-01T00:34:06;99309.41;;;10.08
49593;BMP280;35499;51.482;4.264;2023-04-01T00:36:32;99305.13;;;10.08
49593;BMP280;35499;51.482;4.264;2023-04-01T00:38:58;99309.41;;;10.08
49593;BMP280;35499;51.482;4.264;2023-04-01T00:41:26;99306.84;;;10.08
49593;BMP280;35499;51.482;4.264;2023-04-01T00:44:22;99311.09;;;10.09
49593;BMP280;35499;51.482;4.264;2023-04-01T00:46:48;99311.09;;;10.09
49593;BMP280;35499;51.482;4.264;2023-04-01T00:49:16;99311.91;;;10.11
49593;BMP280;35499;51.482;4.264;2023-04-01T00:51:45;99315.25;;;10.11
49593;BMP280;35499;51.482;4.264;2023-04-01T00:54:13;99312.69;;;10.11
49593;BMP280;35499;51.482;4.264;2023-04-01T00:56:48;99319.59;;;10.11
49593;BMP280;35499;51.482;4.264;2023-04-01T00:59:19;99317.91;;;10.10
49593;BMP280;35499;51.482;4.264;2023-04-01T01:01:46;99323.03;;;10.10
49593;BMP280;35499;51.482;4.264;2023-04-01T01:07:14;99331.50;;;10.12
49593;BMP280;35499;51.482;4.264;2023-04-01T01:12:31;99329.88;;;10.09
49593;BMP280;35499;51.482;4.264;2023-04-01T01:15:06;99328.16;;;10.10
49593;BMP280;35499;51.482;4.264;2023-04-01T01:20:49;99324.72;;;10.11
49593;BMP280;35499;51.482;4.264;2023-04-01T01:23:32;99331.50;;;10.12
49593;BMP280;35499;51.482;4.264;2023-04-01T01:37:16;99341.16;;;10.05
49593;BMP280;35499;51.482;4.264;2023-04-01T01:39:50;99344.66;;;10.03
49593;BMP280;35499;51.482;4.264;2023-04-01T01:42:18;99349.78;;;10.03
49593;BMP280;35499;51.482;4.264;2023-04-01T01:44:45;99349.00;;;10.01
49593;BMP280;35499;51.482;4.264;2023-04-01T01:47:13;99349.81;;;10.01
49593;BMP280;35499;51.482;4.264;2023-04-01T01:49:40;99356.69;;;10.01
49593;BMP280;35499;51.482;4.264;2023-04-01T01:52:06;99358.50;;;9.98
49593;BMP280;35499;51.482;4.264;2023-04-01T01:54:31;99357.75;;;9.96
49593;BMP280;35499;51.482;4.264;2023-04-01T01:57:05;99367.16;;;9.95
49593;BMP280;35499;51.482;4.264;2023-04-01T01:59:33;99369.78;;;9.94
49593;BMP280;35499;51.482;4.264;2023-04-01T02:02:00;99373.22;;;9.93
49593;BMP280;35499;51.482;4.264;2023-04-01T02:04:26;99363.00;;;9.91
49593;BMP280;35499;51.482;4.264;2023-04-01T02:07:02;99370.69;;;9.91
49593;BMP280;35499;51.482;4.264;2023-04-01T02:09:28;99374.19;;;9.90
49593;BMP280;35499;51.482;4.264;2023-04-01T02:12:04;99377.63;;;9.89
49593;BMP280;35499;51.482;4.264;2023-04-01T02:14:41;99377.63;;;9.89
49593;BMP280;35499;51.482;4.264;2023-04-01T02:17:11;99375.91;;;9.90
49593;BMP280;35499;51.482;4.264;2023-04-01T02:22:14;99395.56;;;9.89
49593;BMP280;35499;51.482;4.264;2023-04-01T02:24:42;99389.56;;;9.90
49593;BMP280;35499;51.482;4.264;2023-04-01T02:27:09;99396.41;;;9.90
49593;BMP280;35499;51.482;4.264;2023-04-01T02:29:35;99397.34;;;9.87
49593;BMP280;35499;51.482;4.264;2023-04-01T02:32:00;99400.75;;;9.88
49593;BMP280;35499;51.482;4.264;2023-04-01T02:34:27;99402.47;;;9.87
49593;BMP280;35499;51.482;4.264;2023-04-01T02:36:54;99399.91;;;9.87
49593;BMP280;35499;51.482;4.264;2023-04-01T02:39:20;99406.75;;;9.87
49593;BMP280;35499;51.482;4.264;2023-04-01T02:41:46;99408.47;;;9.86
49593;BMP280;35499;51.482;4.264;2023-04-01T02:44:13;99407.69;;;9.84
49593;BMP280;35499;51.482;4.264;2023-04-01T02:46:39;99409.38;;;9.85
49593;BMP280;35499;51.482;4.264;2023-04-01T02:49:05;99408.59;;;9.83
49593;BMP280;35499;51.482;4.264;2023-04-01T02:51:30;99411.16;;;9.83
49593;BMP280;35499;51.482;4.264;2023-04-01T02:53:56;99413.72;;;9.83
49593;BMP280;35499;51.482;4.264;2023-04-01T02:56:21;99417.97;;;9.84
49593;BMP280;35499;51.482;4.264;2023-04-01T02:58:47;99427.41;;;9.83
49593;BMP280;35499;51.482;4.264;2023-04-01T03:01:12;99431.78;;;9.81
49593;BMP280;35499;51.482;4.264;2023-04-01T03:03:39;99418.03;;;9.82
49593;BMP280;35499;51.482;4.264;2023-04-01T03:06:09;99440.22;;;9.83
49593;BMP280;35499;51.482;4.264;2023-04-01T03:08:35;99436.78;;;9.83
49593;BMP280;35499;51.482;4.264;2023-04-01T03:11:00;99437.63;;;9.84
49593;BMP280;35499;51.482;4.264;2023-04-01T03:13:26;99450.47;;;9.83
49593;BMP280;35499;51.482;4.264;2023-04-01T03:15:51;99447.03;;;9.83
49593;BMP280;35499;51.482;4.264;2023-04-01T03:18:17;99461.53;;;9.84
49593;BMP280;35499;51.482;4.264;2023-04-01T03:20:42;99465.88;;;9.83
49593;BMP280;35499;51.482;4.264;2023-04-01T03:23:08;99470.09;;;9.83
49593;BMP280;35499;51.482;4.264;2023-04-01T03:25:33;99465.03;;;9.82
49593;BMP280;35499;51.482;4.264;2023-04-01T03:27:58;99465.03;;;9.82
49593;BMP280;35499;51.482;4.264;2023-04-01T03:30:25;99476.13;;;9.83
49593;BMP280;35499;51.482;4.264;2023-04-01T03:32:50;99485.50;;;9.83
49593;BMP280;35499;51.482;4.264;2023-04-01T03:35:16;99480.41;;;9.82
49593;BMP280;35499;51.482;4.264;2023-04-01T03:37:41;99483.88;;;9.81
49593;BMP280;35499;51.482;4.264;2023-04-01T03:40:07;99480.50;;;9.79
49593;BMP280;35499;51.482;4.264;2023-04-01T03:42:32;99488.19;;;9.79
49593;BMP280;35499;51.482;4.264;2023-04-01T03:44:57;99489.03;;;9.80
49593;BMP280;35499;51.482;4.264;2023-04-01T03:47:23;99491.69;;;9.77
49593;BMP280;35499;51.482;4.264;2023-04-01T03:49:48;99492.59;;;9.74
49593;BMP280;35499;51.482;4.264;2023-04-01T03:52:13;99496.16;;;9.70
49593;BMP280;35499;51.482;4.264;2023-04-01T03:54:39;99505.56;;;9.70
49593;BMP280;35499;51.482;4.264;2023-04-01T03:57:05;99507.31;;;9.68
49593;BMP280;35499;51.482;4.264;2023-04-01T03:59:30;99510.78;;;9.67
49593;BMP280;35499;51.482;4.264;2023-04-01T04:01:55;99507.47;;;9.64
49593;BMP280;35499;51.482;4.264;2023-04-01T04:04:21;99516.91;;;9.62
49593;BMP280;35499;51.482;4.264;2023-04-01T04:06:46;99522.88;;;9.62
49593;BMP280;35499;51.482;4.264;2023-04-01T04:09:12;99522.03;;;9.62
49593;BMP280;35499;51.482;4.264;2023-04-01T04:11:37;99523.84;;;9.60
49593;BMP280;35499;51.482;4.264;2023-04-01T04:14:02;99531.56;;;9.58
49593;BMP280;35499;51.482;4.264;2023-04-01T04:16:28;99540.06;;;9.60
49593;BMP280;35499;51.482;4.264;2023-04-01T04:18:53;99533.34;;;9.56
49593;BMP280;35499;51.482;4.264;2023-04-01T04:21:18;99530.81;;;9.55
49593;BMP280;35499;51.482;4.264;2023-04-01T04:23:44;99532.44;;;9.57
49593;BMP280;35499;51.482;4.264;2023-04-01T04:26:11;99546.09;;;9.58
49593;BMP280;35499;51.482;4.264;2023-04-01T04:28:37;99531.66;;;9.55
49593;BMP280;35499;51.482;4.264;2023-04-01T04:31:03;99546.19;;;9.55
49593;BMP280;35499;51.482;4.264;2023-04-01T04:33:30;99550.47;;;9.54
49593;BMP280;35499;51.482;4.264;2023-04-01T04:35:56;99547.13;;;9.52
49593;BMP280;35499;51.482;4.264;2023-04-01T04:38:22;99542.00;;;9.52
49593;BMP280;35499;51.482;4.264;2023-04-01T04:40:48;99555.69;;;9.51
49593;BMP280;35499;51.482;4.264;2023-04-01T04:43:15;99556.53;;;9.52
49593;BMP280;35499;51.482;4.264;2023-04-01T04:45:41;99563.34;;;9.53
49593;BMP280;35499;51.482;4.264;2023-04-01T04:48:11;99558.25;;;9.51
49593;BMP280;35499;51.482;4.264;2023-04-01T04:50:41;99565.13;;;9.51
49593;BMP280;35499;51.482;4.264;2023-04-01T04:53:12;99569.41;;;9.50
49593;BMP280;35499;51.482;4.264;2023-04-01T04:55:37;99571.06;;;9.51
49593;BMP280;35499;51.482;4.264;2023-04-01T04:58:03;99577.88;;;9.52
49593;BMP280;35499;51.482;4.264;2023-04-01T05:00:28;99586.44;;;9.51
49593;BMP280;35499;51.482;4.264;2023-04-01T05:02:53;99585.63;;;9.51
49593;BMP280;35499;51.482;4.264;2023-04-01T05:05:19;99595.03;;;9.50
49593;BMP280;35499;51.482;4.264;2023-04-01T05:07:44;99593.34;;;9.49
49593;BMP280;35499;51.482;4.264;2023-04-01T05:10:09;99602.63;;;9.52
49593;BMP280;35499;51.482;4.264;2023-04-01T05:12:35;99610.41;;;9.50
49593;BMP280;35499;51.482;4.264;2023-04-01T05:15:05;99617.16;;;9.51
49593;BMP280;35499;51.482;4.264;2023-04-01T05:17:31;99617.13;;;9.53
49593;BMP280;35499;51.482;4.264;2023-04-01T05:19:56;99615.41;;;9.53
49593;BMP280;35499;51.482;4.264;2023-04-01T05:22:22;99621.38;;;9.54
49593;BMP280;35499;51.482;4.264;2023-04-01T05:24:47;99622.25;;;9.53
49593;BMP280;35499;51.482;4.264;2023-04-01T05:27:12;99630.72;;;9.56
49593;BMP280;35499;51.482;4.264;2023-04-01T05:29:38;99627.34;;;9.54
49593;BMP280;35499;51.482;4.264;2023-04-01T05:32:03;99635.06;;;9.53
49593;BMP280;35499;51.482;4.264;2023-04-01T05:34:29;99635.88;;;9.55
49593;BMP280;35499;51.482;4.264;2023-04-01T05:36:54;99644.47;;;9.52
49593;BMP280;35499;51.482;4.264;2023-04-01T05:39:19;99643.63;;;9.52
49593;BMP280;35499;51.482;4.264;2023-04-01T05:41:45;99641.91;;;9.52
49593;BMP280;35499;51.482;4.264;2023-04-01T05:44:12;99660.66;;;9.54
49593;BMP280;35499;51.482;4.264;2023-04-01T05:46:37;99659.78;;;9.55
49593;BMP280;35499;51.482;4.264;2023-04-01T05:49:02;99660.56;;;9.57
49593;BMP280;35499;51.482;4.264;2023-04-01T05:51:28;99669.94;;;9.58
49593;BMP280;35499;51.482;4.264;2023-04-01T05:53:53;99668.25;;;9.57
49593;BMP280;35499;51.482;4.264;2023-04-01T05:56:18;99671.66;;;9.58
49593;BMP280;35499;51.482;4.264;2023-04-01T05:58:46;99673.38;;;9.57
49593;BMP280;35499;51.482;4.264;2023-04-01T06:01:15;99669.09;;;9.58
49593;BMP280;35499;51.482;4.264;2023-04-01T06:03:40;99687.88;;;9.58
49593;BMP280;35499;51.482;4.264;2023-04-01T06:06:13;99683.56;;;9.60
49593;BMP280;35499;51.482;4.264;2023-04-01T06:08:39;99695.50;;;9.61
49593;BMP280;35499;51.482;4.264;2023-04-01T06:19:00;99709.03;;;9.66
49593;BMP280;35499;51.482;4.264;2023-04-01T06:24:36;99715.72;;;9.70
49593;BMP280;35499;51.482;4.264;2023-04-01T06:43:13;99751.44;;;9.76
49593;BMP280;35499;51.482;4.264;2023-04-01T06:51:52;99753.06;;;9.80
49593;BMP280;35499;51.482;4.264;2023-04-01T06:54:25;99762.38;;;9.82
49593;BMP280;35499;51.482;4.264;2023-04-01T06:56:55;99761.47;;;9.84
49593;BMP280;35499;51.482;4.264;2023-04-01T06:59:25;99764.88;;;9.85
49593;BMP280;35499;51.482;4.264;2023-04-01T07:01:55;99775.06;;;9.86
49593;BMP280;35499;51.482;4.264;2023-04-01T07:04:31;99769.91;;;9.88
49593;BMP280;35499;51.482;4.264;2023-04-01T07:07:12;99779.25;;;9.90
49593;BMP280;35499;51.482;4.264;2023-04-01T07:09:41;99774.03;;;9.93
49593;BMP280;35499;51.482;4.264;2023-04-01T07:12:21;99784.16;;;9.98
49593;BMP280;35499;51.482;4.264;2023-04-01T07:14:53;99774.56;;;10.04
49593;BMP280;35499;51.482;4.264;2023-04-01T07:17:23;99793.41;;;10.03
49593;BMP280;35499;51.482;4.264;2023-04-01T07:19:57;99792.56;;;10.02
49593;BMP280;35499;51.482;4.264;2023-04-01T07:22:39;99798.63;;;10.00
49593;BMP280;35499;51.482;4.264;2023-04-01T07:25:34;99796.00;;;10.01
49593;BMP280;35499;51.482;4.264;2023-04-01T07:28:03;99808.81;;;10.01
49593;BMP280;35499;51.482;4.264;2023-04-01T07:30:52;99800.22;;;10.04
49593;BMP280;35499;51.482;4.264;2023-04-01T07:33:49;99811.34;;;10.03
49593;BMP280;35499;51.482;4.264;2023-04-01T07:36:30;99816.50;;;10.01
49593;BMP280;35499;51.482;4.264;2023-04-01T07:39:35;99821.78;;;9.97
49593;BMP280;35499;51.482;4.264;2023-04-01T07:42:24;99825.25;;;9.96
49593;BMP280;35499;51.482;4.264;2023-04-01T07:47:33;99823.56;;;9.95
49593;BMP280;35499;51.482;4.264;2023-04-01T07:52:44;99839.00;;;9.92
49593;BMP280;35499;51.482;4.264;2023-04-01T07:55:23;99833.09;;;9.90
49593;BMP280;35499;51.482;4.264;2023-04-01T08:01:04;99844.91;;;9.96
49593;BMP280;35499;51.482;4.264;2023-04-01T08:06:53;99861.88;;;10.01
49593;BMP280;35499;51.482;4.264;2023-04-01T08:12:27;99866.16;;;10.01
49593;BMP280;35499;51.482;4.264;2023-04-01T08:15:18;99869.63;;;9.98
49593;BMP280;35499;51.482;4.264;2023-04-01T08:23:17;99877.41;;;9.95
49593;BMP280;35499;51.482;4.264;2023-04-01T08:28:41;99894.53;;;9.93
49593;BMP280;35499;51.482;4.264;2023-04-01T08:31:21;99895.38;;;9.94
49593;BMP280;35499;51.482;4.264;2023-04-01T08:33:49;99900.59;;;9.91
49593;BMP280;35499;51.482;4.264;2023-04-01T08:36:18;99908.34;;;9.89
49593;BMP280;35499;51.482;4.264;2023-04-01T08:38:52;99909.13;;;9.91
49593;BMP280;35499;51.482;4.264;2023-04-01T08:47:13;99911.69;;;9.91
49593;BMP280;35499;51.482;4.264;2023-04-01T08:50:12;99925.41;;;9.90
49593;BMP280;35499;51.482;4.264;2023-04-01T09:07:51;99947.66;;;9.88
49593;BMP280;35499;51.482;4.264;2023-04-01T09:12:59;99944.22;;;9.89
49593;BMP280;35499;51.482;4.264;2023-04-01T09:27:29;99962.81;;;9.97
49593;BMP280;35499;51.482;4.264;2023-04-01T09:33:38;99961.09;;;9.98
49593;BMP280;35499;51.482;4.264;2023-04-01T09:35:48;99966.09;;;10.02
49593;BMP280;35499;51.482;4.264;2023-04-01T09:38:23;99972.94;;;10.03
49593;BMP280;35499;51.482;4.264;2023-04-01T09:41:17;99969.50;;;10.02
49593;BMP280;35499;51.482;4.264;2023-04-01T09:44:00;99978.06;;;10.03
49593;BMP280;35499;51.482;4.264;2023-04-01T10:00:32;99989.28;;;9.99
49593;BMP280;35499;51.482;4.264;2023-04-01T10:03:58;100008.81;;;10.03
49593;BMP280;35499;51.482;4.264;2023-04-01T10:12:44;99999.25;;;10.11
49593;BMP280;35499;51.482;4.264;2023-04-01T10:15:28;100003.56;;;10.09
49593;BMP280;35499;51.482;4.264;2023-04-01T10:18:23;100012.13;;;10.08
49593;BMP280;35499;51.482;4.264;2023-04-01T10:21:03;100013.81;;;10.09
49593;BMP280;35499;51.482;4.264;2023-04-01T10:32:00;100008.97;;;10.30
49593;BMP280;35499;51.482;4.264;2023-04-01T10:34:56;100014.03;;;10.33
49593;BMP280;35499;51.482;4.264;2023-04-01T10:46:00;100024.13;;;10.38
49593;BMP280;35499;51.482;4.264;2023-04-01T10:59:53;100037.25;;;10.59
49593;BMP280;35499;51.482;4.264;2023-04-01T11:02:44;100048.22;;;10.66
49593;BMP280;35499;51.482;4.264;2023-04-01T11:25:00;100066.78;;;10.75
49593;BMP280;35499;51.482;4.264;2023-04-01T11:27:41;100062.50;;;10.74
49593;BMP280;35499;51.482;4.264;2023-04-01T11:33:04;100068.56;;;10.72
49593;BMP280;35499;51.482;4.264;2023-04-01T11:35:54;100065.25;;;10.68
49593;BMP280;35499;51.482;4.264;2023-04-01T11:44:11;100082.50;;;10.63
49593;BMP280;35499;51.482;4.264;2023-04-01T11:49:29;100085.91;;;10.64
49593;BMP280;35499;51.482;4.264;2023-04-01T11:52:29;100093.63;;;10.62
49593;BMP280;35499;51.482;4.264;2023-04-01T12:07:01;100110.28;;;10.81
49593;BMP280;35499;51.482;4.264;2023-04-01T12:17:59;100126.91;;;10.98
49593;BMP280;35499;51.482;4.264;2023-04-01T12:20:50;100132.00;;;10.99
49593;BMP280;35499;51.482;4.264;2023-04-01T12:29:08;100131.84;;;11.05
49593;BMP280;35499;51.482;4.264;2023-04-01T12:37:54;100144.19;;;10.91
49593;BMP280;35499;51.482;4.264;2023-04-01T12:40:44;100154.47;;;10.91
49593;BMP280;35499;51.482;4.264;2023-04-01T12:43:25;100151.03;;;10.92
49593;BMP280;35499;51.482;4.264;2023-04-01T12:46:20;100157.84;;;10.93
49593;BMP280;35499;51.482;4.264;2023-04-01T12:52:03;100168.09;;;10.95
49593;BMP280;35499;51.482;4.264;2023-04-01T13:08:45;100172.53;;;10.89
49593;BMP280;35499;51.482;4.264;2023-04-01T13:14:00;100182.72;;;10.91
49593;BMP280;35499;51.482;4.264;2023-04-01T13:16:37;100182.66;;;10.94
49593;BMP280;35499;51.482;4.264;2023-04-01T13:21:54;100184.41;;;10.92
49593;BMP280;35499;51.482;4.264;2023-04-01T13:24:30;100189.50;;;10.95
49593;BMP280;35499;51.482;4.264;2023-04-01T13:27:02;100195.56;;;10.91
49593;BMP280;35499;51.482;4.264;2023-04-01T13:29:56;100194.94;;;10.84
49593;BMP280;35499;51.482;4.264;2023-04-01T13:33:06;100198.50;;;10.78
49593;BMP280;35499;51.482;4.264;2023-04-01T13:36:04;100203.81;;;10.71
49593;BMP280;35499;51.482;4.264;2023-04-01T13:38:39;100197.94;;;10.66
49593;BMP280;35499;51.482;4.264;2023-04-01T13:43:50;100212.47;;;10.67
49593;BMP280;35499;51.482;4.264;2023-04-01T13:46:22;100212.47;;;10.67
49593;BMP280;35499;51.482;4.264;2023-04-01T13:54:38;100220.84;;;10.75
49593;BMP280;35499;51.482;4.264;2023-04-01T14:00:06;100217.97;;;10.87
49593;BMP280;35499;51.482;4.264;2023-04-01T14:02:46;100227.34;;;10.88
49593;BMP280;35499;51.482;4.264;2023-04-01T14:05:25;100224.06;;;10.83
49593;BMP280;35499;51.482;4.264;2023-04-01T14:10:31;100223.44;;;10.73
49593;BMP280;35499;51.482;4.264;2023-04-01T14:13:07;100239.00;;;10.68
49593;BMP280;35499;51.482;4.264;2023-04-01T14:15:51;100234.94;;;10.59
49593;BMP280;35499;51.482;4.264;2023-04-01T14:29:53;100253.88;;;10.54
49593;BMP280;35499;51.482;4.264;2023-04-01T14:32:47;100256.38;;;10.57
49593;BMP280;35499;51.482;4.264;2023-04-01T14:43:21;100266.00;;;10.48
49593;BMP280;35499;51.482;4.264;2023-04-01T14:46:05;100266.09;;;10.45
49593;BMP280;35499;51.482;4.264;2023-04-01T14:48:39;100268.75;;;10.40
49593;BMP280;35499;51.482;4.264;2023-04-01T14:51:20;100272.19;;;10.39
49593;BMP280;35499;51.482;4.264;2023-04-01T14:54:00;100281.59;;;10.40
49593;BMP280;35499;51.482;4.264;2023-04-01T14:56:42;100279.88;;;10.41
49593;BMP280;35499;51.482;4.264;2023-04-01T14:59:28;100278.19;;;10.40
49593;BMP280;35499;51.482;4.264;2023-04-01T15:02:08;100274.75;;;10.41
49593;BMP280;35499;51.482;4.264;2023-04-01T15:04:43;100284.91;;;10.44
49593;BMP280;35499;51.482;4.264;2023-04-01T15:09:42;100286.53;;;10.48
49593;BMP280;35499;51.482;4.264;2023-04-01T15:20:18;100298.38;;;10.55
49593;BMP280;35499;51.482;4.264;2023-04-01T15:23:10;100296.66;;;10.55
49593;BMP280;35499;51.482;4.264;2023-04-01T15:26:06;100303.50;;;10.55
49593;BMP280;35499;51.482;4.264;2023-04-01T15:31:21;100309.47;;;10.55
49593;BMP280;35499;51.482;4.264;2023-04-01T15:34:20;100318.06;;;10.54
49593;BMP280;35499;51.482;4.264;2023-04-01T15:45:31;100332.47;;;10.59
49593;BMP280;35499;51.482;4.264;2023-04-01T15:48:17;100336.66;;;10.63
49593;BMP280;35499;51.482;4.264;2023-04-01T15:56:24;100346.91;;;10.65
49593;BMP280;35499;51.482;4.264;2023-04-01T16:01:44;100348.66;;;10.63
49593;BMP280;35499;51.482;4.264;2023-04-01T16:05:20;100353.03;;;10.59
49593;BMP280;35499;51.482;4.264;2023-04-01T16:10:16;100356.78;;;10.44
49593;BMP280;35499;51.482;4.264;2023-04-01T16:13:12;100360.22;;;10.43
49593;BMP280;35499;51.482;4.264;2023-04-01T16:16:00;100363.75;;;10.39
49593;BMP280;35499;51.482;4.264;2023-04-01T16:18:41;100368.88;;;10.39
49593;BMP280;35499;51.482;4.264;2023-04-01T16:21:21;100369.69;;;10.41
49593;BMP280;35499;51.482;4.264;2023-04-01T16:24:00;100374.78;;;10.42
49593;BMP280;35499;51.482;4.264;2023-04-01T16:26:43;100374.75;;;10.44
49593;BMP280;35499;51.482;4.264;2023-04-01T16:35:01;100393.59;;;10.43
49593;BMP280;35499;51.482;4.264;2023-04-01T16:37:36;100385.91;;;10.43
49593;BMP280;35499;51.482;4.264;2023-04-01T16:42:56;100399.50;;;10.46
49593;BMP280;35499;51.482;4.264;2023-04-01T16:45:37;100408.97;;;10.44
49593;BMP280;35499;51.482;4.264;2023-04-01T16:48:15;100404.69;;;10.45
49593;BMP280;35499;51.482;4.264;2023-04-01T16:50:53;100411.53;;;10.44
49593;BMP280;35499;51.482;4.264;2023-04-01T16:53:36;100421.81;;;10.43
49593;BMP280;35499;51.482;4.264;2023-04-01T16:56:04;100428.66;;;10.44
49593;BMP280;35499;51.482;4.264;2023-04-01T16:58:37;100429.50;;;10.46
49593;BMP280;35499;51.482;4.264;2023-04-01T17:01:17;100426.88;;;10.47
49593;BMP280;35499;51.482;4.264;2023-04-01T17:03:52;100431.13;;;10.48
49593;BMP280;35499;51.482;4.264;2023-04-01T17:06:32;100437.94;;;10.51
49593;BMP280;35499;51.482;4.264;2023-04-01T17:14:37;100448.25;;;10.48
49593;BMP280;35499;51.482;4.264;2023-04-01T17:20:07;100456.03;;;10.45
49593;BMP280;35499;51.482;4.264;2023-04-01T17:22:44;100466.28;;;10.45
49593;BMP280;35499;51.482;4.264;2023-04-01T17:30:35;100471.47;;;10.42
49593;BMP280;35499;51.482;4.264;2023-04-01T17:35:52;100482.69;;;10.38
49593;BMP280;35499;51.482;4.264;2023-04-01T17:38:30;100483.53;;;10.37
49593;BMP280;35499;51.482;4.264;2023-04-01T17:45:55;100506.72;;;10.33
49593;BMP280;35499;51.482;4.264;2023-04-01T17:48:29;100512.72;;;10.32
49593;BMP280;35499;51.482;4.264;2023-04-01T17:51:34;100515.38;;;10.29
49593;BMP280;35499;51.482;4.264;2023-04-01T17:54:40;100514.53;;;10.27
49593;BMP280;35499;51.482;4.264;2023-04-01T17:57:30;100527.34;;;10.27
49593;BMP280;35499;51.482;4.264;2023-04-01T18:02:57;100531.63;;;10.26
49593;BMP280;35499;51.482;4.264;2023-04-01T18:05:56;100535.03;;;10.28
49593;BMP280;35499;51.482;4.264;2023-04-01T18:08:49;100537.59;;;10.28
49593;BMP280;35499;51.482;4.264;2023-04-01T18:11:32;100550.44;;;10.28
49593;BMP280;35499;51.482;4.264;2023-04-01T18:14:38;100557.31;;;10.26
49593;BMP280;35499;51.482;4.264;2023-04-01T18:22:54;100565.91;;;10.25
49593;BMP280;35499;51.482;4.264;2023-04-01T18:25:37;100579.59;;;10.26
49593;BMP280;35499;51.482;4.264;2023-04-01T18:33:42;100599.19;;;10.28
49593;BMP280;35499;51.482;4.264;2023-04-01T18:36:46;100604.34;;;10.28
49593;BMP280;35499;51.482;4.264;2023-04-01T18:39:17;100613.72;;;10.29
49593;BMP280;35499;51.482;4.264;2023-04-01T18:41:51;100618.88;;;10.29
49593;BMP280;35499;51.482;4.264;2023-04-01T18:53:15;100638.53;;;10.30
49593;BMP280;35499;51.482;4.264;2023-04-01T18:55:54;100647.03;;;10.32
49593;BMP280;35499;51.482;4.264;2023-04-01T18:58:25;100647.88;;;10.33
49593;BMP280;35499;51.482;4.264;2023-04-01T19:04:18;100652.13;;;10.35
49593;BMP280;35499;51.482;4.264;2023-04-01T19:06:55;100660.69;;;10.36
49593;BMP280;35499;51.482;4.264;2023-04-01T19:09:30;100672.63;;;10.37
49593;BMP280;35499;51.482;4.264;2023-04-01T19:12:19;100682.03;;;10.37
49593;BMP280;35499;51.482;4.264;2023-04-01T19:17:36;100682.00;;;10.40
49593;BMP280;35499;51.482;4.264;2023-04-01T19:25:37;100700.69;;;10.47
49593;BMP280;35499;51.482;4.264;2023-04-01T19:30:54;100709.28;;;10.46
49593;BMP280;35499;51.482;4.264;2023-04-01T19:35:58;100717.00;;;10.44
49593;BMP280;35499;51.482;4.264;2023-04-01T19:38:37;100716.16;;;10.44
49593;BMP280;35499;51.482;4.264;2023-04-01T19:41:34;100729.84;;;10.43
49593;BMP280;35499;51.482;4.264;2023-04-01T19:47:02;100734.19;;;10.39
49593;BMP280;35499;51.482;4.264;2023-04-01T19:49:36;100747.03;;;10.38
49593;BMP280;35499;51.482;4.264;2023-04-01T20:03:04;100769.34;;;10.33
49593;BMP280;35499;51.482;4.264;2023-04-01T20:05:40;100781.34;;;10.31
49593;BMP280;35499;51.482;4.264;2023-04-01T20:10:52;100786.59;;;10.25
49593;BMP280;35499;51.482;4.264;2023-04-01T20:13:25;100796.88;;;10.22
49593;BMP280;35499;51.482;4.264;2023-04-01T20:16:02;100796.94;;;10.21
49593;BMP280;35499;51.482;4.264;2023-04-01T20:18:44;100815.75;;;10.19
49593;BMP280;35499;51.482;4.264;2023-04-01T20:23:49;100812.34;;;10.18
49593;BMP280;35499;51.482;4.264;2023-04-01T20:26:21;100826.03;;;10.17
49593;BMP280;35499;51.482;4.264;2023-04-01T20:31:39;100829.50;;;10.15
49593;BMP280;35499;51.482;4.264;2023-04-01T20:42:40;100850.09;;;10.09
49593;BMP280;35499;51.482;4.264;2023-04-01T20:53:20;100886.13;;;10.00
49593;BMP280;35499;51.482;4.264;2023-04-01T21:00:57;100898.16;;;9.95
49593;BMP280;35499;51.482;4.264;2023-04-01T21:09:11;100907.59;;;9.92
49593;BMP280;35499;51.482;4.264;2023-04-01T21:14:35;100921.31;;;9.88
49593;BMP280;35499;51.482;4.264;2023-04-01T21:17:22;100927.28;;;9.88
49593;BMP280;35499;51.482;4.264;2023-04-01T21:20:34;100933.31;;;9.86
49593;BMP280;35499;51.482;4.264;2023-04-01T21:32:03;100964.16;;;9.76
49593;BMP280;35499;51.482;4.264;2023-04-01T21:34:43;100968.44;;;9.74
49593;BMP280;35499;51.482;4.264;2023-04-01T21:42:51;100965.91;;;9.69
49593;BMP280;35499;51.482;4.264;2023-04-01T21:54:06;100995.88;;;9.63
49593;BMP280;35499;51.482;4.264;2023-04-01T21:56:58;100996.72;;;9.62
49593;BMP280;35499;51.482;4.264;2023-04-01T21:59:43;101001.91;;;9.61
49593;BMP280;35499;51.482;4.264;2023-04-01T22:07:21;101019.88;;;9.56
49593;BMP280;35499;51.482;4.264;2023-04-01T22:09:56;101023.31;;;9.55
49593;BMP280;35499;51.482;4.264;2023-04-01T22:15:40;101036.13;;;9.54
49593;BMP280;35499;51.482;4.264;2023-04-01T22:21:05;101043.84;;;9.47
49593;BMP280;35499;51.482;4.264;2023-04-01T22:28:51;101055.84;;;9.45
49593;BMP280;35499;51.482;4.264;2023-04-01T22:31:25;101064.38;;;9.44
49593;BMP280;35499;51.482;4.264;2023-04-01T22:36:48;101072.06;;;9.42
49593;BMP280;35499;51.482;4.264;2023-04-01T22:39:50;101072.97;;;9.40
49593;BMP280;35499;51.482;4.264;2023-04-01T22:42:35;101082.34;;;9.39
49593;BMP280;35499;51.482;4.264;2023-04-01T22:45:31;101084.09;;;9.36
49593;BMP280;35499;51.482;4.264;2023-04-01T22:50:50;101093.53;;;9.31
49593;BMP280;35499;51.482;4.264;2023-04-01T22:53:43;101110.59;;;9.29